sensor_id;sensor_type;location;lat;lon;timestamp;P1;durP1;ratioP1;P2;durP2;ratioP2
20478;SDS011;10398;52.490;13.434;2023-07-02T00:01:48;1.50;;;0.90;;
20478;SDS011;10398;52.490;13.434;2023-07-02T00:04:17;1.05;;;0.68;;
20478;SDS011;10398;52.490;13.434;2023-07-02T00:06:47;1.50;;;1.00;;
20478;SDS011;10398;52.490;13.434;2023-07-02T00:09:14;0.98;;;0.68;;
20478;SDS011;10398;52.490;13.434;2023-07-02T00:11:41;4.28;;;1.40;;
20478;SDS011;10398;52.490;13.434;2023-07-02T00:14:09;2.90;;;1.33;;
20478;SDS011;10398;52.490;13.434;2023-07-02T00:16:37;1.52;;;1.00;;
20478;SDS011;10398;52.490;13.434;2023-07-02T00:19:04;4.72;;;1.05;;
20478;SDS011;10398;52.490;13.434;2023-07-02T00:21:29;1.48;;;0.82;;
20478;SDS011;10398;52.490;13.434;2023-07-02T00:23:58;2.85;;;1.50;;
20478;SDS011;10398;52.490;13.434;2023-07-02T00:26:25;3.75;;;1.23;;
20478;SDS011;10398;52.490;13.434;2023-07-02T00:28:55;1.52;;;0.77;;
20478;SDS011;10398;52.490;13.434;2023-07-02T00:31:22;1.50;;;0.90;;
20478;SDS011;10398;52.490;13.434;2023-07-02T00:33:48;2.00;;;1.20;;
20478;SDS011;10398;52.490;13.434;2023-07-02T00:36:14;2.78;;;1.10;;
20478;SDS011;10398;52.490;13.434;2023-07-02T00:38:44;4.97;;;1.20;;
20478;SDS011;10398;52.490;13.434;2023-07-02T00:41:11;2.67;;;1.45;;
20478;SDS011;10398;52.490;13.434;2023-07-02T00:43:37;1.42;;;0.90;;
20478;SDS011;10398;52.490;13.434;2023-07-02T00:46:08;1.70;;;1.27;;
20478;SDS011;10398;52.490;13.434;2023-07-02T00:48:39;2.17;;;1.10;;
20478;SDS011;10398;52.490;13.434;2023-07-02T00:51:05;4.63;;;2.10;;
20478;SDS011;10398;52.490;13.434;2023-07-02T00:53:31;1.92;;;1.30;;
20478;SDS011;10398;52.490;13.434;2023-07-02T00:55:57;1.70;;;1.30;;
20478;SDS011;10398;52.490;13.434;2023-07-02T00:58:23;6.45;;;1.63;;
20478;SDS011;10398;52.490;13.434;2023-07-02T01:00:49;2.17;;;1.25;;
20478;SDS011;10398;52.490;13.434;2023-07-02T01:03:15;2.30;;;1.50;;
20478;SDS011;10398;52.490;13.434;2023-07-02T01:05:40;2.20;;;1.45;;
20478;SDS011;10398;52.490;13.434;2023-07-02T01:08:08;4.68;;;1.40;;
20478;SDS011;10398;52.490;13.434;2023-07-02T01:10:37;2.80;;;1.75;;
20478;SDS011;10398;52.490;13.434;2023-07-02T01:13:07;2.63;;;1.50;;
20478;SDS011;10398;52.490;13.434;2023-07-02T01:15:37;2.95;;;1.42;;
20478;SDS011;10398;52.490;13.434;2023-07-02T01:18:04;3.47;;;2.08;;
20478;SDS011;10398;52.490;13.434;2023-07-02T01:20:30;3.15;;;1.65;;
20478;SDS011;10398;52.490;13.434;2023-07-02T01:22:57;4.47;;;2.03;;
20478;SDS011;10398;52.490;13.434;2023-07-02T01:25:27;1.58;;;1.33;;
20478;SDS011;10398;52.490;13.434;2023-07-02T01:27:54;3.45;;;1.63;;
20478;SDS011;10398;52.490;13.434;2023-07-02T01:30:21;2.63;;;1.70;;
20478;SDS011;10398;52.490;13.434;2023-07-02T01:32:47;5.68;;;1.88;;
20478;SDS011;10398;52.490;13.434;2023-07-02T01:35:12;4.43;;;1.70;;
20478;SDS011;10398;52.490;13.434;2023-07-02T01:37:38;2.53;;;1.65;;
20478;SDS011;10398;52.490;13.434;2023-07-02T01:40:07;2.78;;;1.95;;
20478;SDS011;10398;52.490;13.434;2023-07-02T01:42:33;2.92;;;1.80;;
20478;SDS011;10398;52.490;13.434;2023-07-02T01:44:59;4.18;;;2.13;;
20478;SDS011;10398;52.490;13.434;2023-07-02T01:47:25;3.45;;;1.95;;
20478;SDS011;10398;52.490;13.434;2023-07-02T01:49:51;3.83;;;1.73;;
20478;SDS011;10398;52.490;13.434;2023-07-02T01:52:16;2.40;;;1.83;;
20478;SDS011;10398;52.490;13.434;2023-07-02T01:54:42;2.80;;;2.20;;
20478;SDS011;10398;52.490;13.434;2023-07-02T01:57:09;4.25;;;2.60;;
20478;SDS011;10398;52.490;13.434;2023-07-02T01:59:35;3.47;;;2.08;;
20478;SDS011;10398;52.490;13.434;2023-07-02T02:02:01;6.22;;;2.30;;
20478;SDS011;10398;52.490;13.434;2023-07-02T02:04:27;4.32;;;2.40;;
20478;SDS011;10398;52.490;13.434;2023-07-02T02:06:52;4.00;;;2.58;;
20478;SDS011;10398;52.490;13.434;2023-07-02T02:09:19;6.53;;;2.75;;
20478;SDS011;10398;52.490;13.434;2023-07-02T02:11:45;4.65;;;3.00;;
20478;SDS011;10398;52.490;13.434;2023-07-02T02:14:13;4.10;;;2.63;;
20478;SDS011;10398;52.490;13.434;2023-07-02T02:16:39;9.15;;;4.75;;
20478;SDS011;10398;52.490;13.434;2023-07-02T02:19:04;5.57;;;2.72;;
20478;SDS011;10398;52.490;13.434;2023-07-02T02:21:30;4.43;;;2.58;;
20478;SDS011;10398;52.490;13.434;2023-07-02T02:23:56;2.90;;;2.38;;
20478;SDS011;10398;52.490;13.434;2023-07-02T02:26:22;5.95;;;3.10;;
20478;SDS011;10398;52.490;13.434;2023-07-02T02:28:49;5.57;;;2.95;;
20478;SDS011;10398;52.490;13.434;2023-07-02T02:31:16;3.35;;;2.50;;
20478;SDS011;10398;52.490;13.434;2023-07-02T02:33:42;3.80;;;2.10;;
20478;SDS011;10398;52.490;13.434;2023-07-02T02:36:08;3.60;;;2.10;;
20478;SDS011;10398;52.490;13.434;2023-07-02T02:38:33;3.53;;;1.92;;
20478;SDS011;10398;52.490;13.434;2023-07-02T02:40:59;3.20;;;2.20;;
20478;SDS011;10398;52.490;13.434;2023-07-02T02:43:27;3.17;;;2.30;;
20478;SDS011;10398;52.490;13.434;2023-07-02T02:45:53;4.97;;;1.70;;
20478;SDS011;10398;52.490;13.434;2023-07-02T02:48:18;4.80;;;2.40;;
20478;SDS011;10398;52.490;13.434;2023-07-02T02:50:44;7.25;;;2.53;;
20478;SDS011;10398;52.490;13.434;2023-07-02T02:53:10;8.23;;;2.00;;
20478;SDS011;10398;52.490;13.434;2023-07-02T02:55:36;2.22;;;1.60;;
20478;SDS011;10398;52.490;13.434;2023-07-02T02:58:02;7.70;;;2.20;;
20478;SDS011;10398;52.490;13.434;2023-07-02T03:00:28;2.53;;;2.08;;
20478;SDS011;10398;52.490;13.434;2023-07-02T03:02:54;2.05;;;1.67;;
20478;SDS011;10398;52.490;13.434;2023-07-02T03:05:20;3.78;;;2.13;;
20478;SDS011;10398;52.490;13.434;2023-07-02T03:07:47;3.97;;;2.28;;
20478;SDS011;10398;52.490;13.434;2023-07-02T03:10:12;5.57;;;2.25;;
20478;SDS011;10398;52.490;13.434;2023-07-02T03:12:38;6.15;;;3.80;;
20478;SDS011;10398;52.490;13.434;2023-07-02T03:15:04;9.40;;;4.80;;
20478;SDS011;10398;52.490;13.434;2023-07-02T03:17:30;5.32;;;2.97;;
20478;SDS011;10398;52.490;13.434;2023-07-02T03:19:55;3.80;;;2.17;;
20478;SDS011;10398;52.490;13.434;2023-07-02T03:22:21;5.15;;;2.33;;
20478;SDS011;10398;52.490;13.434;2023-07-02T03:24:46;9.40;;;4.85;;
20478;SDS011;10398;52.490;13.434;2023-07-02T03:27:12;4.95;;;1.95;;
20478;SDS011;10398;52.490;13.434;2023-07-02T03:29:38;8.27;;;2.45;;
20478;SDS011;10398;52.490;13.434;2023-07-02T03:32:03;4.63;;;2.77;;
20478;SDS011;10398;52.490;13.434;2023-07-02T03:34:30;8.00;;;2.00;;
20478;SDS011;10398;52.490;13.434;2023-07-02T03:36:55;10.48;;;2.63;;
20478;SDS011;10398;52.490;13.434;2023-07-02T03:39:21;4.38;;;2.30;;
20478;SDS011;10398;52.490;13.434;2023-07-02T03:41:47;2.85;;;1.95;;
20478;SDS011;10398;52.490;13.434;2023-07-02T03:44:12;4.50;;;2.00;;
20478;SDS011;10398;52.490;13.434;2023-07-02T03:46:38;3.60;;;1.75;;
20478;SDS011;10398;52.490;13.434;2023-07-02T03:49:04;2.60;;;1.88;;
20478;SDS011;10398;52.490;13.434;2023-07-02T03:51:30;6.13;;;1.70;;
20478;SDS011;10398;52.490;13.434;2023-07-02T03:53:55;2.78;;;1.70;;
20478;SDS011;10398;52.490;13.434;2023-07-02T03:56:22;2.47;;;1.53;;
20478;SDS011;10398;52.490;13.434;2023-07-02T03:58:48;1.98;;;1.60;;
20478;SDS011;10398;52.490;13.434;2023-07-02T04:01:13;7.30;;;1.65;;
20478;SDS011;10398;52.490;13.434;2023-07-02T04:03:41;3.37;;;1.40;;
20478;SDS011;10398;52.490;13.434;2023-07-02T04:06:13;5.60;;;1.60;;
20478;SDS011;10398;52.490;13.434;2023-07-02T04:08:38;9.43;;;2.25;;
20478;SDS011;10398;52.490;13.434;2023-07-02T04:11:04;14.38;;;4.03;;
20478;SDS011;10398;52.490;13.434;2023-07-02T04:13:29;3.95;;;2.10;;
20478;SDS011;10398;52.490;13.434;2023-07-02T04:15:55;3.60;;;1.58;;
20478;SDS011;10398;52.490;13.434;2023-07-02T04:18:21;3.30;;;1.80;;
20478;SDS011;10398;52.490;13.434;2023-07-02T04:20:46;2.10;;;1.40;;
20478;SDS011;10398;52.490;13.434;2023-07-02T04:23:12;2.83;;;1.58;;
20478;SDS011;10398;52.490;13.434;2023-07-02T04:25:37;7.40;;;2.05;;
20478;SDS011;10398;52.490;13.434;2023-07-02T04:28:03;3.83;;;1.55;;
20478;SDS011;10398;52.490;13.434;2023-07-02T04:30:29;2.80;;;1.50;;
20478;SDS011;10398;52.490;13.434;2023-07-02T04:32:54;1.45;;;1.25;;
20478;SDS011;10398;52.490;13.434;2023-07-02T04:35:20;2.58;;;1.52;;
20478;SDS011;10398;52.490;13.434;2023-07-02T04:37:46;5.35;;;1.48;;
20478;SDS011;10398;52.490;13.434;2023-07-02T04:40:11;4.55;;;1.30;;
20478;SDS011;10398;52.490;13.434;2023-07-02T04:42:37;4.38;;;1.52;;
20478;SDS011;10398;52.490;13.434;2023-07-02T04:45:04;5.20;;;1.58;;
20478;SDS011;10398;52.490;13.434;2023-07-02T04:47:30;3.63;;;1.70;;
20478;SDS011;10398;52.490;13.434;2023-07-02T04:49:56;4.43;;;1.77;;
20478;SDS011;10398;52.490;13.434;2023-07-02T04:52:22;5.65;;;1.83;;
20478;SDS011;10398;52.490;13.434;2023-07-02T04:54:48;3.63;;;1.70;;
20478;SDS011;10398;52.490;13.434;2023-07-02T04:57:14;3.63;;;1.33;;
20478;SDS011;10398;52.490;13.434;2023-07-02T04:59:43;3.53;;;1.43;;
20478;SDS011;10398;52.490;13.434;2023-07-02T05:02:09;2.92;;;1.48;;
20478;SDS011;10398;52.490;13.434;2023-07-02T05:04:35;1.93;;;1.30;;
20478;SDS011;10398;52.490;13.434;2023-07-02T05:07:03;3.40;;;1.65;;
20478;SDS011;10398;52.490;13.434;2023-07-02T05:09:29;3.63;;;1.70;;
20478;SDS011;10398;52.490;13.434;2023-07-02T05:11:56;2.45;;;1.20;;
20478;SDS011;10398;52.490;13.434;2023-07-02T05:14:24;2.95;;;1.40;;
20478;SDS011;10398;52.490;13.434;2023-07-02T05:16:50;5.53;;;1.60;;
20478;SDS011;10398;52.490;13.434;2023-07-02T05:19:15;3.47;;;1.52;;
20478;SDS011;10398;52.490;13.434;2023-07-02T05:21:41;2.08;;;1.30;;
20478;SDS011;10398;52.490;13.434;2023-07-02T05:24:07;3.47;;;1.45;;
20478;SDS011;10398;52.490;13.434;2023-07-02T05:26:33;3.17;;;1.55;;
20478;SDS011;10398;52.490;13.434;2023-07-02T05:29:00;3.88;;;1.10;;
20478;SDS011;10398;52.490;13.434;2023-07-02T05:31:26;2.97;;;1.55;;
20478;SDS011;10398;52.490;13.434;2023-07-02T05:33:51;1.95;;;1.20;;
20478;SDS011;10398;52.490;13.434;2023-07-02T05:36:18;10.18;;;2.13;;
20478;SDS011;10398;52.490;13.434;2023-07-02T05:38:44;6.23;;;2.00;;
20478;SDS011;10398;52.490;13.434;2023-07-02T05:41:10;4.25;;;1.52;;
20478;SDS011;10398;52.490;13.434;2023-07-02T05:43:35;2.10;;;1.38;;
20478;SDS011;10398;52.490;13.434;2023-07-02T05:46:01;3.40;;;1.60;;
20478;SDS011;10398;52.490;13.434;2023-07-02T05:48:27;2.28;;;1.20;;
20478;SDS011;10398;52.490;13.434;2023-07-02T05:50:53;5.07;;;1.75;;
20478;SDS011;10398;52.490;13.434;2023-07-02T05:53:19;3.90;;;1.47;;
20478;SDS011;10398;52.490;13.434;2023-07-02T05:55:45;3.13;;;1.40;;
20478;SDS011;10398;52.490;13.434;2023-07-02T05:58:12;4.30;;;1.30;;
20478;SDS011;10398;52.490;13.434;2023-07-02T06:00:37;3.55;;;1.90;;
20478;SDS011;10398;52.490;13.434;2023-07-02T06:03:06;3.60;;;1.50;;
20478;SDS011;10398;52.490;13.434;2023-07-02T06:05:32;4.20;;;1.60;;
20478;SDS011;10398;52.490;13.434;2023-07-02T06:07:58;4.43;;;1.17;;
20478;SDS011;10398;52.490;13.434;2023-07-02T06:10:23;4.07;;;1.67;;
20478;SDS011;10398;52.490;13.434;2023-07-02T06:12:49;2.53;;;1.43;;
20478;SDS011;10398;52.490;13.434;2023-07-02T06:15:15;4.47;;;1.33;;
20478;SDS011;10398;52.490;13.434;2023-07-02T06:17:40;4.35;;;1.38;;
20478;SDS011;10398;52.490;13.434;2023-07-02T06:20:06;2.27;;;1.40;;
20478;SDS011;10398;52.490;13.434;2023-07-02T06:22:32;3.27;;;1.60;;
20478;SDS011;10398;52.490;13.434;2023-07-02T06:24:58;2.63;;;1.40;;
20478;SDS011;10398;52.490;13.434;2023-07-02T06:27:24;1.65;;;1.38;;
20478;SDS011;10398;52.490;13.434;2023-07-02T06:29:49;5.97;;;1.50;;
20478;SDS011;10398;52.490;13.434;2023-07-02T06:32:16;5.05;;;1.60;;
20478;SDS011;10398;52.490;13.434;2023-07-02T06:34:42;4.53;;;1.45;;
20478;SDS011;10398;52.490;13.434;2023-07-02T06:37:08;5.75;;;1.33;;
20478;SDS011;10398;52.490;13.434;2023-07-02T06:39:33;5.13;;;1.40;;
20478;SDS011;10398;52.490;13.434;2023-07-02T06:41:59;3.42;;;1.38;;
20478;SDS011;10398;52.490;13.434;2023-07-02T06:44:24;5.90;;;1.58;;
20478;SDS011;10398;52.490;13.434;2023-07-02T06:46:50;4.65;;;1.48;;
20478;SDS011;10398;52.490;13.434;2023-07-02T06:49:16;6.35;;;1.75;;
20478;SDS011;10398;52.490;13.434;2023-07-02T06:51:42;4.25;;;1.73;;
20478;SDS011;10398;52.490;13.434;2023-07-02T06:54:07;2.65;;;1.40;;
20478;SDS011;10398;52.490;13.434;2023-07-02T06:56:33;5.38;;;1.50;;
20478;SDS011;10398;52.490;13.434;2023-07-02T06:58:59;2.75;;;1.40;;
20478;SDS011;10398;52.490;13.434;2023-07-02T07:01:26;5.82;;;1.90;;
20478;SDS011;10398;52.490;13.434;2023-07-02T07:03:52;3.47;;;1.73;;
20478;SDS011;10398;52.490;13.434;2023-07-02T07:06:17;3.95;;;1.80;;
20478;SDS011;10398;52.490;13.434;2023-07-02T07:08:43;2.45;;;1.58;;
20478;SDS011;10398;52.490;13.434;2023-07-02T07:11:09;8.20;;;1.60;;
20478;SDS011;10398;52.490;13.434;2023-07-02T07:13:34;3.03;;;1.33;;
20478;SDS011;10398;52.490;13.434;2023-07-02T07:16:00;3.33;;;1.60;;
20478;SDS011;10398;52.490;13.434;2023-07-02T07:18:26;4.90;;;1.20;;
20478;SDS011;10398;52.490;13.434;2023-07-02T07:20:51;4.22;;;1.30;;
20478;SDS011;10398;52.490;13.434;2023-07-02T07:23:18;2.92;;;1.25;;
20478;SDS011;10398;52.490;13.434;2023-07-02T07:25:44;2.35;;;1.30;;
20478;SDS011;10398;52.490;13.434;2023-07-02T07:28:13;3.97;;;1.13;;
20478;SDS011;10398;52.490;13.434;2023-07-02T07:30:42;4.63;;;1.83;;
20478;SDS011;10398;52.490;13.434;2023-07-02T07:33:08;4.55;;;1.45;;
20478;SDS011;10398;52.490;13.434;2023-07-02T07:35:33;2.50;;;1.30;;
20478;SDS011;10398;52.490;13.434;2023-07-02T07:37:59;3.58;;;1.48;;
20478;SDS011;10398;52.490;13.434;2023-07-02T07:40:24;4.20;;;1.33;;
20478;SDS011;10398;52.490;13.434;2023-07-02T07:42:50;5.95;;;1.70;;
20478;SDS011;10398;52.490;13.434;2023-07-02T07:45:16;4.20;;;1.52;;
20478;SDS011;10398;52.490;13.434;2023-07-02T07:47:41;2.53;;;1.20;;
20478;SDS011;10398;52.490;13.434;2023-07-02T07:50:07;3.55;;;1.58;;
20478;SDS011;10398;52.490;13.434;2023-07-02T07:52:39;4.93;;;1.70;;
20478;SDS011;10398;52.490;13.434;2023-07-02T07:55:06;5.95;;;1.58;;
20478;SDS011;10398;52.490;13.434;2023-07-02T07:57:33;2.75;;;1.33;;
20478;SDS011;10398;52.490;13.434;2023-07-02T08:00:00;5.97;;;1.50;;
20478;SDS011;10398;52.490;13.434;2023-07-02T08:02:29;2.80;;;1.58;;
20478;SDS011;10398;52.490;13.434;2023-07-02T08:04:54;6.97;;;1.38;;
20478;SDS011;10398;52.490;13.434;2023-07-02T08:07:20;2.78;;;1.23;;
20478;SDS011;10398;52.490;13.434;2023-07-02T08:09:46;2.17;;;1.55;;
20478;SDS011;10398;52.490;13.434;2023-07-02T08:12:11;2.53;;;1.42;;
20478;SDS011;10398;52.490;13.434;2023-07-02T08:14:37;3.70;;;1.52;;
20478;SDS011;10398;52.490;13.434;2023-07-02T08:17:03;5.35;;;1.50;;
20478;SDS011;10398;52.490;13.434;2023-07-02T08:19:28;3.00;;;1.17;;
20478;SDS011;10398;52.490;13.434;2023-07-02T08:21:54;3.42;;;1.50;;
20478;SDS011;10398;52.490;13.434;2023-07-02T08:24:20;3.55;;;1.60;;
20478;SDS011;10398;52.490;13.434;2023-07-02T08:26:45;2.83;;;1.60;;
20478;SDS011;10398;52.490;13.434;2023-07-02T08:29:12;4.63;;;1.65;;
20478;SDS011;10398;52.490;13.434;2023-07-02T08:31:38;2.63;;;1.73;;
20478;SDS011;10398;52.490;13.434;2023-07-02T08:34:05;2.65;;;1.52;;
20478;SDS011;10398;52.490;13.434;2023-07-02T08:36:30;3.83;;;2.13;;
20478;SDS011;10398;52.490;13.434;2023-07-02T08:38:56;4.13;;;2.17;;
20478;SDS011;10398;52.490;13.434;2023-07-02T08:41:21;6.63;;;1.77;;
20478;SDS011;10398;52.490;13.434;2023-07-02T08:43:48;5.53;;;1.92;;
20478;SDS011;10398;52.490;13.434;2023-07-02T08:46:15;5.07;;;2.47;;
20478;SDS011;10398;52.490;13.434;2023-07-02T08:48:41;5.38;;;1.95;;
20478;SDS011;10398;52.490;13.434;2023-07-02T08:51:07;6.25;;;2.10;;
20478;SDS011;10398;52.490;13.434;2023-07-02T08:53:33;4.25;;;1.77;;
20478;SDS011;10398;52.490;13.434;2023-07-02T08:56:00;2.88;;;1.58;;
20478;SDS011;10398;52.490;13.434;2023-07-02T08:58:26;3.42;;;1.83;;
20478;SDS011;10398;52.490;13.434;2023-07-02T09:01:03;6.35;;;2.17;;
20478;SDS011;10398;52.490;13.434;2023-07-02T09:03:32;3.88;;;2.10;;
20478;SDS011;10398;52.490;13.434;2023-07-02T09:05:58;5.07;;;2.28;;
20478;SDS011;10398;52.490;13.434;2023-07-02T09:08:24;9.13;;;2.25;;
20478;SDS011;10398;52.490;13.434;2023-07-02T09:10:51;7.90;;;2.10;;
20478;SDS011;10398;52.490;13.434;2023-07-02T09:13:16;4.40;;;2.10;;
20478;SDS011;10398;52.490;13.434;2023-07-02T09:15:42;3.78;;;2.28;;
20478;SDS011;10398;52.490;13.434;2023-07-02T09:18:17;3.45;;;1.80;;
20478;SDS011;10398;52.490;13.434;2023-07-02T09:20:43;5.93;;;2.25;;
20478;SDS011;10398;52.490;13.434;2023-07-02T09:23:09;7.68;;;2.10;;
20478;SDS011;10398;52.490;13.434;2023-07-02T09:25:39;7.32;;;2.17;;
20478;SDS011;10398;52.490;13.434;2023-07-02T09:30:53;5.95;;;2.28;;
20478;SDS011;10398;52.490;13.434;2023-07-02T09:33:21;7.20;;;2.20;;
20478;SDS011;10398;52.490;13.434;2023-07-02T09:35:53;5.80;;;2.42;;
20478;SDS011;10398;52.490;13.434;2023-07-02T09:38:20;4.85;;;2.17;;
20478;SDS011;10398;52.490;13.434;2023-07-02T09:40:47;7.22;;;2.50;;
20478;SDS011;10398;52.490;13.434;2023-07-02T09:43:15;5.97;;;2.38;;
20478;SDS011;10398;52.490;13.434;2023-07-02T09:45:45;11.40;;;3.08;;
20478;SDS011;10398;52.490;13.434;2023-07-02T09:48:13;4.07;;;2.08;;
20478;SDS011;10398;52.490;13.434;2023-07-02T09:50:42;8.50;;;2.72;;
20478;SDS011;10398;52.490;13.434;2023-07-02T09:53:09;9.02;;;2.78;;
20478;SDS011;10398;52.490;13.434;2023-07-02T09:55:35;4.82;;;2.45;;
20478;SDS011;10398;52.490;13.434;2023-07-02T09:58:01;6.82;;;2.95;;
20478;SDS011;10398;52.490;13.434;2023-07-02T10:00:27;10.63;;;2.92;;
20478;SDS011;10398;52.490;13.434;2023-07-02T10:02:52;9.77;;;3.17;;
20478;SDS011;10398;52.490;13.434;2023-07-02T10:05:25;11.27;;;2.88;;
20478;SDS011;10398;52.490;13.434;2023-07-02T10:07:55;16.90;;;3.53;;
20478;SDS011;10398;52.490;13.434;2023-07-02T10:10:29;8.95;;;2.97;;
20478;SDS011;10398;52.490;13.434;2023-07-02T10:12:55;7.57;;;2.80;;
20478;SDS011;10398;52.490;13.434;2023-07-02T10:15:25;8.07;;;2.85;;
20478;SDS011;10398;52.490;13.434;2023-07-02T10:17:59;9.65;;;3.00;;
20478;SDS011;10398;52.490;13.434;2023-07-02T10:20:37;9.75;;;2.85;;
20478;SDS011;10398;52.490;13.434;2023-07-02T10:23:05;12.25;;;3.33;;
20478;SDS011;10398;52.490;13.434;2023-07-02T10:25:32;15.07;;;2.72;;
20478;SDS011;10398;52.490;13.434;2023-07-02T10:28:00;6.50;;;2.80;;
20478;SDS011;10398;52.490;13.434;2023-07-02T10:30:31;10.05;;;3.67;;
20478;SDS011;10398;52.490;13.434;2023-07-02T10:33:10;9.35;;;3.10;;
20478;SDS011;10398;52.490;13.434;2023-07-02T10:35:40;10.20;;;2.90;;
20478;SDS011;10398;52.490;13.434;2023-07-02T10:38:17;8.35;;;2.92;;
20478;SDS011;10398;52.490;13.434;2023-07-02T10:40:53;10.00;;;3.20;;
20478;SDS011;10398;52.490;13.434;2023-07-02T10:43:28;12.93;;;3.28;;
20478;SDS011;10398;52.490;13.434;2023-07-02T10:45:55;8.23;;;2.80;;
20478;SDS011;10398;52.490;13.434;2023-07-02T10:48:21;10.38;;;3.08;;
20478;SDS011;10398;52.490;13.434;2023-07-02T10:50:48;12.25;;;3.03;;
20478;SDS011;10398;52.490;13.434;2023-07-02T10:53:17;9.18;;;3.05;;
20478;SDS011;10398;52.490;13.434;2023-07-02T10:55:44;11.45;;;4.07;;
20478;SDS011;10398;52.490;13.434;2023-07-02T10:58:10;7.45;;;3.00;;
20478;SDS011;10398;52.490;13.434;2023-07-02T11:00:46;9.70;;;3.13;;
20478;SDS011;10398;52.490;13.434;2023-07-02T11:03:26;9.02;;;3.03;;
20478;SDS011;10398;52.490;13.434;2023-07-02T11:05:52;7.65;;;3.40;;
20478;SDS011;10398;52.490;13.434;2023-07-02T11:08:18;15.75;;;3.67;;
20478;SDS011;10398;52.490;13.434;2023-07-02T11:10:48;8.55;;;3.47;;
20478;SDS011;10398;52.490;13.434;2023-07-02T11:13:14;11.05;;;4.00;;
20478;SDS011;10398;52.490;13.434;2023-07-02T11:15:41;11.07;;;3.67;;
20478;SDS011;10398;52.490;13.434;2023-07-02T11:18:11;10.50;;;3.97;;
20478;SDS011;10398;52.490;13.434;2023-07-02T11:20:38;11.63;;;3.20;;
20478;SDS011;10398;52.490;13.434;2023-07-02T11:23:04;9.68;;;3.55;;
20478;SDS011;10398;52.490;13.434;2023-07-02T11:25:41;10.77;;;3.30;;
20478;SDS011;10398;52.490;13.434;2023-07-02T11:28:06;10.20;;;4.03;;
20478;SDS011;10398;52.490;13.434;2023-07-02T11:30:32;11.38;;;4.15;;
20478;SDS011;10398;52.490;13.434;2023-07-02T11:33:00;12.07;;;5.25;;
20478;SDS011;10398;52.490;13.434;2023-07-02T11:35:35;12.35;;;4.15;;
20478;SDS011;10398;52.490;13.434;2023-07-02T11:38:01;11.43;;;3.88;;
20478;SDS011;10398;52.490;13.434;2023-07-02T11:40:27;13.50;;;3.95;;
20478;SDS011;10398;52.490;13.434;2023-07-02T11:42:52;11.30;;;3.47;;
20478;SDS011;10398;52.490;13.434;2023-07-02T11:45:18;12.70;;;3.70;;
20478;SDS011;10398;52.490;13.434;2023-07-02T11:47:43;6.15;;;3.08;;
20478;SDS011;10398;52.490;13.434;2023-07-02T11:50:09;11.77;;;3.25;;
20478;SDS011;10398;52.490;13.434;2023-07-02T11:52:35;10.20;;;3.83;;
20478;SDS011;10398;52.490;13.434;2023-07-02T11:55:01;14.98;;;3.70;;
20478;SDS011;10398;52.490;13.434;2023-07-02T11:57:26;9.93;;;3.78;;
20478;SDS011;10398;52.490;13.434;2023-07-02T11:59:52;9.35;;;3.65;;
20478;SDS011;10398;52.490;13.434;2023-07-02T12:02:18;11.73;;;3.58;;
20478;SDS011;10398;52.490;13.434;2023-07-02T12:04:44;12.05;;;3.50;;
20478;SDS011;10398;52.490;13.434;2023-07-02T12:07:09;15.18;;;3.78;;
20478;SDS011;10398;52.490;13.434;2023-07-02T12:09:35;14.60;;;4.00;;
20478;SDS011;10398;52.490;13.434;2023-07-02T12:12:01;12.50;;;3.58;;
20478;SDS011;10398;52.490;13.434;2023-07-02T12:14:28;9.85;;;3.50;;
20478;SDS011;10398;52.490;13.434;2023-07-02T12:16:53;11.32;;;4.20;;
20478;SDS011;10398;52.490;13.434;2023-07-02T12:19:19;15.75;;;5.00;;
20478;SDS011;10398;52.490;13.434;2023-07-02T12:21:45;8.43;;;3.47;;
20478;SDS011;10398;52.490;13.434;2023-07-02T12:24:10;13.35;;;3.83;;
20478;SDS011;10398;52.490;13.434;2023-07-02T12:26:36;9.75;;;3.20;;
20478;SDS011;10398;52.490;13.434;2023-07-02T12:29:02;8.45;;;3.78;;
20478;SDS011;10398;52.490;13.434;2023-07-02T12:31:29;14.15;;;3.78;;
20478;SDS011;10398;52.490;13.434;2023-07-02T12:33:54;10.65;;;3.60;;
20478;SDS011;10398;52.490;13.434;2023-07-02T12:36:20;8.52;;;3.70;;
20478;SDS011;10398;52.490;13.434;2023-07-02T12:38:46;14.05;;;3.83;;
20478;SDS011;10398;52.490;13.434;2023-07-02T12:41:11;12.93;;;3.90;;
20478;SDS011;10398;52.490;13.434;2023-07-02T12:43:37;22.58;;;7.70;;
20478;SDS011;10398;52.490;13.434;2023-07-02T12:46:03;20.00;;;6.80;;
20478;SDS011;10398;52.490;13.434;2023-07-02T12:48:29;14.00;;;4.05;;
20478;SDS011;10398;52.490;13.434;2023-07-02T12:50:58;10.40;;;3.83;;
20478;SDS011;10398;52.490;13.434;2023-07-02T12:53:25;11.43;;;4.53;;
20478;SDS011;10398;52.490;13.434;2023-07-02T12:55:51;7.53;;;3.33;;
20478;SDS011;10398;52.490;13.434;2023-07-02T12:58:17;10.68;;;3.45;;
20478;SDS011;10398;52.490;13.434;2023-07-02T13:00:43;13.85;;;4.40;;
20478;SDS011;10398;52.490;13.434;2023-07-02T13:03:10;10.60;;;3.95;;
20478;SDS011;10398;52.490;13.434;2023-07-02T13:05:36;9.68;;;3.90;;
20478;SDS011;10398;52.490;13.434;2023-07-02T13:08:02;11.40;;;4.20;;
20478;SDS011;10398;52.490;13.434;2023-07-02T13:10:29;13.27;;;3.75;;
20478;SDS011;10398;52.490;13.434;2023-07-02T13:12:55;10.13;;;4.07;;
20478;SDS011;10398;52.490;13.434;2023-07-02T13:15:21;13.45;;;4.35;;
20478;SDS011;10398;52.490;13.434;2023-07-02T13:17:47;13.00;;;4.25;;
20478;SDS011;10398;52.490;13.434;2023-07-02T13:20:13;13.13;;;4.07;;
20478;SDS011;10398;52.490;13.434;2023-07-02T13:25:07;12.23;;;3.80;;
20478;SDS011;10398;52.490;13.434;2023-07-02T13:27:32;11.55;;;4.15;;
20478;SDS011;10398;52.490;13.434;2023-07-02T13:29:58;11.00;;;3.67;;
20478;SDS011;10398;52.490;13.434;2023-07-02T13:32:24;8.77;;;3.45;;
20478;SDS011;10398;52.490;13.434;2023-07-02T13:34:50;9.18;;;3.75;;
20478;SDS011;10398;52.490;13.434;2023-07-02T13:37:16;7.60;;;3.25;;
20478;SDS011;10398;52.490;13.434;2023-07-02T13:39:48;10.63;;;4.00;;
20478;SDS011;10398;52.490;13.434;2023-07-02T13:42:14;11.35;;;3.92;;
20478;SDS011;10398;52.490;13.434;2023-07-02T13:44:41;9.10;;;3.30;;
20478;SDS011;10398;52.490;13.434;2023-07-02T13:47:08;13.95;;;3.63;;
20478;SDS011;10398;52.490;13.434;2023-07-02T13:49:33;9.27;;;3.72;;
20478;SDS011;10398;52.490;13.434;2023-07-02T13:51:59;9.27;;;3.75;;
20478;SDS011;10398;52.490;13.434;2023-07-02T13:54:25;10.25;;;3.45;;
20478;SDS011;10398;52.490;13.434;2023-07-02T13:56:51;12.18;;;4.03;;
20478;SDS011;10398;52.490;13.434;2023-07-02T13:59:18;11.65;;;3.97;;
20478;SDS011;10398;52.490;13.434;2023-07-02T14:01:45;9.65;;;4.20;;
20478;SDS011;10398;52.490;13.434;2023-07-02T14:04:11;12.18;;;4.68;;
20478;SDS011;10398;52.490;13.434;2023-07-02T14:06:38;12.13;;;3.75;;
20478;SDS011;10398;52.490;13.434;2023-07-02T14:09:04;11.60;;;3.65;;
20478;SDS011;10398;52.490;13.434;2023-07-02T14:11:31;9.02;;;4.07;;
20478;SDS011;10398;52.490;13.434;2023-07-02T14:13:57;11.93;;;4.30;;
20478;SDS011;10398;52.490;13.434;2023-07-02T14:16:23;10.95;;;3.97;;
20478;SDS011;10398;52.490;13.434;2023-07-02T14:18:49;10.20;;;4.20;;
20478;SDS011;10398;52.490;13.434;2023-07-02T14:21:16;9.50;;;3.78;;
20478;SDS011;10398;52.490;13.434;2023-07-02T14:23:41;8.93;;;3.53;;
20478;SDS011;10398;52.490;13.434;2023-07-02T14:26:08;11.15;;;3.53;;
20478;SDS011;10398;52.490;13.434;2023-07-02T14:28:33;9.98;;;3.95;;
20478;SDS011;10398;52.490;13.434;2023-07-02T14:30:59;11.20;;;4.35;;
20478;SDS011;10398;52.490;13.434;2023-07-02T14:33:30;14.15;;;4.03;;